sensor_id;sensor_type;location;lat;lon;timestamp;P1;durP1;ratioP1;P2;durP2;ratioP2
55172;SDS011;41061;52.822;6.860;2023-04-19T00:00:17;13.15;;;8.80;;
55172;SDS011;41061;52.822;6.860;2023-04-19T00:02:44;13.77;;;8.40;;
55172;SDS011;41061;52.822;6.860;2023-04-19T00:05:13;13.32;;;8.40;;
55172;SDS011;41061;52.822;6.860;2023-04-19T00:07:39;11.68;;;8.25;;
55172;SDS011;41061;52.822;6.860;2023-04-19T00:10:05;12.73;;;8.60;;
55172;SDS011;41061;52.822;6.860;2023-04-19T00:12:31;12.23;;;8.30;;
55172;SDS011;41061;52.822;6.860;2023-04-19T00:14:57;15.30;;;8.32;;
55172;SDS011;41061;52.822;6.860;2023-04-19T00:17:23;14.00;;;8.32;;
55172;SDS011;41061;52.822;6.860;2023-04-19T00:19:49;14.52;;;8.60;;
55172;SDS011;41061;52.822;6.860;2023-04-19T00:22:15;12.95;;;8.88;;
55172;SDS011;41061;52.822;6.860;2023-04-19T00:24:41;15.63;;;8.77;;
55172;SDS011;41061;52.822;6.860;2023-04-19T00:27:07;11.30;;;8.18;;
55172;SDS011;41061;52.822;6.860;2023-04-19T00:29:33;11.20;;;7.28;;
55172;SDS011;41061;52.822;6.860;2023-04-19T00:31:58;13.80;;;7.95;;
55172;SDS011;41061;52.822;6.860;2023-04-19T00:34:24;13.55;;;7.50;;
55172;SDS011;41061;52.822;6.860;2023-04-19T00:36:50;12.75;;;7.88;;
55172;SDS011;41061;52.822;6.860;2023-04-19T00:39:15;15.05;;;8.38;;
55172;SDS011;41061;52.822;6.860;2023-04-19T00:41:41;14.50;;;8.18;;
55172;SDS011;41061;52.822;6.860;2023-04-19T00:44:07;13.13;;;8.07;;
55172;SDS011;41061;52.822;6.860;2023-04-19T00:46:33;10.65;;;7.35;;
55172;SDS011;41061;52.822;6.860;2023-04-19T00:49:00;10.93;;;7.60;;
55172;SDS011;41061;52.822;6.860;2023-04-19T00:51:26;11.57;;;7.30;;
55172;SDS011;41061;52.822;6.860;2023-04-19T00:53:52;9.38;;;7.10;;
55172;SDS011;41061;52.822;6.860;2023-04-19T00:56:18;13.93;;;7.80;;
55172;SDS011;41061;52.822;6.860;2023-04-19T00:58:46;12.43;;;7.65;;
55172;SDS011;41061;52.822;6.860;2023-04-19T01:01:12;10.05;;;6.63;;
55172;SDS011;41061;52.822;6.860;2023-04-19T01:03:38;12.65;;;6.78;;
55172;SDS011;41061;52.822;6.860;2023-04-19T01:06:04;9.63;;;6.60;;
55172;SDS011;41061;52.822;6.860;2023-04-19T01:08:30;10.30;;;6.60;;
55172;SDS011;41061;52.822;6.860;2023-04-19T01:10:56;11.93;;;6.85;;
55172;SDS011;41061;52.822;6.860;2023-04-19T01:13:21;13.63;;;8.05;;
55172;SDS011;41061;52.822;6.860;2023-04-19T01:15:47;11.02;;;7.63;;
55172;SDS011;41061;52.822;6.860;2023-04-19T01:18:13;12.43;;;6.80;;
55172;SDS011;41061;52.822;6.860;2023-04-19T01:20:38;11.18;;;6.95;;
55172;SDS011;41061;52.822;6.860;2023-04-19T01:23:05;12.52;;;6.90;;
55172;SDS011;41061;52.822;6.860;2023-04-19T01:25:30;11.63;;;6.80;;
55172;SDS011;41061;52.822;6.860;2023-04-19T01:27:56;16.02;;;7.57;;
55172;SDS011;41061;52.822;6.860;2023-04-19T01:30:22;9.50;;;6.88;;
55172;SDS011;41061;52.822;6.860;2023-04-19T01:32:47;11.13;;;6.93;;
55172;SDS011;41061;52.822;6.860;2023-04-19T01:35:13;12.88;;;7.53;;
55172;SDS011;41061;52.822;6.860;2023-04-19T01:37:38;9.00;;;6.47;;
55172;SDS011;41061;52.822;6.860;2023-04-19T01:40:04;13.18;;;7.97;;
55172;SDS011;41061;52.822;6.860;2023-04-19T01:42:31;15.00;;;7.38;;
55172;SDS011;41061;52.822;6.860;2023-04-19T01:44:56;10.98;;;6.68;;
55172;SDS011;41061;52.822;6.860;2023-04-19T01:47:22;15.57;;;6.85;;
55172;SDS011;41061;52.822;6.860;2023-04-19T01:49:49;13.00;;;7.63;;
55172;SDS011;41061;52.822;6.860;2023-04-19T01:52:14;14.90;;;7.78;;
55172;SDS011;41061;52.822;6.860;2023-04-19T01:54:40;13.10;;;7.28;;
55172;SDS011;41061;52.822;6.860;2023-04-19T01:57:06;10.95;;;7.13;;
55172;SDS011;41061;52.822;6.860;2023-04-19T01:59:31;11.95;;;6.97;;
55172;SDS011;41061;52.822;6.860;2023-04-19T02:01:57;11.13;;;6.72;;
55172;SDS011;41061;52.822;6.860;2023-04-19T02:04:23;10.27;;;6.65;;
55172;SDS011;41061;52.822;6.860;2023-04-19T02:06:48;11.52;;;7.05;;
55172;SDS011;41061;52.822;6.860;2023-04-19T02:09:14;12.25;;;6.57;;
55172;SDS011;41061;52.822;6.860;2023-04-19T02:11:40;11.68;;;6.85;;
55172;SDS011;41061;52.822;6.860;2023-04-19T02:14:05;10.45;;;6.60;;
55172;SDS011;41061;52.822;6.860;2023-04-19T02:16:31;7.82;;;5.72;;
55172;SDS011;41061;52.822;6.860;2023-04-19T02:18:57;12.98;;;6.78;;
55172;SDS011;41061;52.822;6.860;2023-04-19T02:21:22;14.27;;;6.20;;
55172;SDS011;41061;52.822;6.860;2023-04-19T02:23:48;12.23;;;6.22;;
55172;SDS011;41061;52.822;6.860;2023-04-19T02:26:14;17.98;;;7.28;;
55172;SDS011;41061;52.822;6.860;2023-04-19T02:28:39;13.68;;;6.93;;
55172;SDS011;41061;52.822;6.860;2023-04-19T02:31:05;14.20;;;7.57;;
55172;SDS011;41061;52.822;6.860;2023-04-19T02:33:31;10.43;;;6.25;;
55172;SDS011;41061;52.822;6.860;2023-04-19T02:35:57;16.30;;;7.20;;
55172;SDS011;41061;52.822;6.860;2023-04-19T02:38:22;10.65;;;7.28;;
55172;SDS011;41061;52.822;6.860;2023-04-19T02:40:48;12.70;;;6.40;;
55172;SDS011;41061;52.822;6.860;2023-04-19T02:43:14;11.50;;;6.78;;
55172;SDS011;41061;52.822;6.860;2023-04-19T02:45:39;14.23;;;7.93;;
55172;SDS011;41061;52.822;6.860;2023-04-19T02:48:05;12.75;;;6.82;;
55172;SDS011;41061;52.822;6.860;2023-04-19T02:50:31;13.35;;;7.70;;
55172;SDS011;41061;52.822;6.860;2023-04-19T02:52:57;11.60;;;7.43;;
55172;SDS011;41061;52.822;6.860;2023-04-19T02:55:23;12.43;;;7.68;;
55172;SDS011;41061;52.822;6.860;2023-04-19T02:57:48;14.23;;;7.28;;
55172;SDS011;41061;52.822;6.860;2023-04-19T03:00:14;12.55;;;7.97;;
55172;SDS011;41061;52.822;6.860;2023-04-19T03:02:41;13.55;;;7.82;;
55172;SDS011;41061;52.822;6.860;2023-04-19T03:05:08;13.55;;;7.53;;
55172;SDS011;41061;52.822;6.860;2023-04-19T03:07:34;20.45;;;9.00;;
55172;SDS011;41061;52.822;6.860;2023-04-19T03:10:00;12.20;;;8.02;;
55172;SDS011;41061;52.822;6.860;2023-04-19T03:12:26;18.15;;;8.20;;
55172;SDS011;41061;52.822;6.860;2023-04-19T03:14:52;12.20;;;8.32;;
55172;SDS011;41061;52.822;6.860;2023-04-19T03:17:17;13.18;;;8.00;;
55172;SDS011;41061;52.822;6.860;2023-04-19T03:19:43;12.55;;;8.55;;
55172;SDS011;41061;52.822;6.860;2023-04-19T03:22:09;16.40;;;9.50;;
55172;SDS011;41061;52.822;6.860;2023-04-19T03:24:35;14.95;;;8.13;;
55172;SDS011;41061;52.822;6.860;2023-04-19T03:27:01;13.70;;;7.55;;
55172;SDS011;41061;52.822;6.860;2023-04-19T03:29:27;13.63;;;8.30;;
55172;SDS011;41061;52.822;6.860;2023-04-19T03:31:53;14.57;;;7.85;;
55172;SDS011;41061;52.822;6.860;2023-04-19T03:34:18;12.73;;;8.35;;
55172;SDS011;41061;52.822;6.860;2023-04-19T03:36:44;12.85;;;7.72;;
55172;SDS011;41061;52.822;6.860;2023-04-19T03:39:10;11.73;;;7.85;;
55172;SDS011;41061;52.822;6.860;2023-04-19T03:41:36;15.65;;;7.90;;
55172;SDS011;41061;52.822;6.860;2023-04-19T03:44:01;15.20;;;8.00;;
55172;SDS011;41061;52.822;6.860;2023-04-19T03:46:27;12.43;;;7.65;;
55172;SDS011;41061;52.822;6.860;2023-04-19T03:48:56;15.75;;;7.80;;
55172;SDS011;41061;52.822;6.860;2023-04-19T03:51:22;12.85;;;7.38;;
55172;SDS011;41061;52.822;6.860;2023-04-19T03:53:48;9.13;;;6.90;;
55172;SDS011;41061;52.822;6.860;2023-04-19T03:56:14;13.20;;;7.53;;
55172;SDS011;41061;52.822;6.860;2023-04-19T03:58:40;12.35;;;8.18;;
55172;SDS011;41061;52.822;6.860;2023-04-19T04:01:05;17.17;;;7.35;;
55172;SDS011;41061;52.822;6.860;2023-04-19T04:03:32;15.90;;;6.93;;
55172;SDS011;41061;52.822;6.860;2023-04-19T04:05:58;11.85;;;6.78;;
55172;SDS011;41061;52.822;6.860;2023-04-19T04:08:24;12.98;;;6.78;;
55172;SDS011;41061;52.822;6.860;2023-04-19T04:10:50;12.05;;;7.20;;
55172;SDS011;41061;52.822;6.860;2023-04-19T04:13:16;12.57;;;6.85;;
55172;SDS011;41061;52.822;6.860;2023-04-19T04:15:43;14.63;;;7.30;;
55172;SDS011;41061;52.822;6.860;2023-04-19T04:18:09;12.68;;;7.18;;
55172;SDS011;41061;52.822;6.860;2023-04-19T04:20:35;11.75;;;7.03;;
55172;SDS011;41061;52.822;6.860;2023-04-19T04:23:01;15.80;;;6.45;;
55172;SDS011;41061;52.822;6.860;2023-04-19T04:25:26;12.57;;;6.82;;
55172;SDS011;41061;52.822;6.860;2023-04-19T04:27:53;12.55;;;7.13;;
55172;SDS011;41061;52.822;6.860;2023-04-19T04:30:18;10.90;;;6.82;;
55172;SDS011;41061;52.822;6.860;2023-04-19T04:32:44;11.50;;;7.40;;
55172;SDS011;41061;52.822;6.860;2023-04-19T04:35:11;12.18;;;6.55;;
55172;SDS011;41061;52.822;6.860;2023-04-19T04:37:37;12.23;;;6.80;;
55172;SDS011;41061;52.822;6.860;2023-04-19T04:40:03;16.52;;;7.57;;
55172;SDS011;41061;52.822;6.860;2023-04-19T04:42:34;13.43;;;7.35;;
55172;SDS011;41061;52.822;6.860;2023-04-19T04:45:01;12.98;;;6.97;;
55172;SDS011;41061;52.822;6.860;2023-04-19T04:47:30;12.23;;;7.57;;
55172;SDS011;41061;52.822;6.860;2023-04-19T04:49:57;10.48;;;6.38;;
55172;SDS011;41061;52.822;6.860;2023-04-19T04:52:23;13.20;;;7.68;;
55172;SDS011;41061;52.822;6.860;2023-04-19T04:54:49;12.65;;;6.90;;
55172;SDS011;41061;52.822;6.860;2023-04-19T04:57:15;12.43;;;5.93;;
55172;SDS011;41061;52.822;6.860;2023-04-19T04:59:41;11.00;;;7.00;;
55172;SDS011;41061;52.822;6.860;2023-04-19T05:02:06;10.52;;;6.78;;
55172;SDS011;41061;52.822;6.860;2023-04-19T05:04:32;8.93;;;5.63;;
55172;SDS011;41061;52.822;6.860;2023-04-19T05:06:58;11.65;;;6.43;;
55172;SDS011;41061;52.822;6.860;2023-04-19T05:09:23;9.88;;;6.03;;
55172;SDS011;41061;52.822;6.860;2023-04-19T05:11:49;13.75;;;6.60;;
55172;SDS011;41061;52.822;6.860;2023-04-19T05:14:15;15.73;;;6.20;;
55172;SDS011;41061;52.822;6.860;2023-04-19T05:16:41;10.50;;;5.70;;
55172;SDS011;41061;52.822;6.860;2023-04-19T05:19:06;11.23;;;6.00;;
55172;SDS011;41061;52.822;6.860;2023-04-19T05:21:32;9.73;;;5.95;;
55172;SDS011;41061;52.822;6.860;2023-04-19T05:23:58;9.85;;;6.05;;
55172;SDS011;41061;52.822;6.860;2023-04-19T05:26:24;9.32;;;5.90;;
55172;SDS011;41061;52.822;6.860;2023-04-19T05:28:50;10.70;;;6.15;;
55172;SDS011;41061;52.822;6.860;2023-04-19T05:31:15;14.35;;;6.38;;
55172;SDS011;41061;52.822;6.860;2023-04-19T05:33:42;11.63;;;6.65;;
55172;SDS011;41061;52.822;6.860;2023-04-19T05:36:08;9.50;;;6.03;;
55172;SDS011;41061;52.822;6.860;2023-04-19T05:38:34;10.15;;;6.05;;
55172;SDS011;41061;52.822;6.860;2023-04-19T05:41:00;8.95;;;6.03;;
55172;SDS011;41061;52.822;6.860;2023-04-19T05:43:26;10.98;;;5.93;;
55172;SDS011;41061;52.822;6.860;2023-04-19T05:45:52;9.73;;;5.45;;
55172;SDS011;41061;52.822;6.860;2023-04-19T05:48:18;13.43;;;6.07;;
55172;SDS011;41061;52.822;6.860;2023-04-19T05:50:43;7.57;;;4.95;;
55172;SDS011;41061;52.822;6.860;2023-04-19T05:53:12;11.35;;;5.00;;
55172;SDS011;41061;52.822;6.860;2023-04-19T05:55:37;7.72;;;4.55;;
55172;SDS011;41061;52.822;6.860;2023-04-19T05:58:03;5.82;;;4.30;;
55172;SDS011;41061;52.822;6.860;2023-04-19T06:00:29;8.75;;;4.95;;
55172;SDS011;41061;52.822;6.860;2023-04-19T06:02:54;9.30;;;4.63;;
55172;SDS011;41061;52.822;6.860;2023-04-19T06:05:20;6.80;;;4.55;;
55172;SDS011;41061;52.822;6.860;2023-04-19T06:07:46;10.60;;;4.88;;
55172;SDS011;41061;52.822;6.860;2023-04-19T06:10:12;6.50;;;4.10;;
55172;SDS011;41061;52.822;6.860;2023-04-19T06:12:37;11.10;;;4.95;;
55172;SDS011;41061;52.822;6.860;2023-04-19T06:15:03;8.98;;;4.50;;
55172;SDS011;41061;52.822;6.860;2023-04-19T06:17:30;6.07;;;3.47;;
55172;SDS011;41061;52.822;6.860;2023-04-19T06:19:56;6.95;;;3.97;;
55172;SDS011;41061;52.822;6.860;2023-04-19T06:22:21;8.25;;;4.35;;
55172;SDS011;41061;52.822;6.860;2023-04-19T06:24:47;7.03;;;3.67;;
55172;SDS011;41061;52.822;6.860;2023-04-19T06:27:14;13.13;;;4.90;;
55172;SDS011;41061;52.822;6.860;2023-04-19T06:29:41;6.30;;;3.75;;
55172;SDS011;41061;52.822;6.860;2023-04-19T06:32:07;8.43;;;4.03;;
55172;SDS011;41061;52.822;6.860;2023-04-19T06:34:33;5.72;;;3.42;;
55172;SDS011;41061;52.822;6.860;2023-04-19T06:36:59;5.30;;;3.30;;
55172;SDS011;41061;52.822;6.860;2023-04-19T06:39:25;7.38;;;3.17;;
55172;SDS011;41061;52.822;6.860;2023-04-19T06:41:51;5.60;;;3.72;;
55172;SDS011;41061;52.822;6.860;2023-04-19T06:44:17;6.28;;;3.60;;
55172;SDS011;41061;52.822;6.860;2023-04-19T06:46:43;6.53;;;3.25;;
55172;SDS011;41061;52.822;6.860;2023-04-19T06:49:09;6.90;;;4.20;;
55172;SDS011;41061;52.822;6.860;2023-04-19T06:51:36;4.95;;;3.25;;
55172;SDS011;41061;52.822;6.860;2023-04-19T06:54:03;6.72;;;4.18;;
55172;SDS011;41061;52.822;6.860;2023-04-19T06:56:45;7.68;;;3.60;;
55172;SDS011;41061;52.822;6.860;2023-04-19T06:59:15;5.43;;;3.20;;
55172;SDS011;41061;52.822;6.860;2023-04-19T07:01:43;8.82;;;3.85;;
55172;SDS011;41061;52.822;6.860;2023-04-19T07:04:09;6.15;;;3.65;;
55172;SDS011;41061;52.822;6.860;2023-04-19T07:06:36;5.85;;;3.50;;
55172;SDS011;41061;52.822;6.860;2023-04-19T07:09:03;9.50;;;4.93;;
55172;SDS011;41061;52.822;6.860;2023-04-19T07:11:29;5.45;;;2.78;;
55172;SDS011;41061;52.822;6.860;2023-04-19T07:13:55;4.15;;;2.80;;
55172;SDS011;41061;52.822;6.860;2023-04-19T07:16:21;6.38;;;2.92;;
55172;SDS011;41061;52.822;6.860;2023-04-19T07:18:47;4.43;;;2.85;;
55172;SDS011;41061;52.822;6.860;2023-04-19T07:21:13;5.28;;;2.85;;
55172;SDS011;41061;52.822;6.860;2023-04-19T07:23:39;7.60;;;3.00;;
55172;SDS011;41061;52.822;6.860;2023-04-19T07:26:05;5.60;;;2.97;;
55172;SDS011;41061;52.822;6.860;2023-04-19T07:28:31;5.93;;;2.35;;
55172;SDS011;41061;52.822;6.860;2023-04-19T07:30:58;5.35;;;2.60;;
55172;SDS011;41061;52.822;6.860;2023-04-19T07:33:25;4.60;;;2.58;;
55172;SDS011;41061;52.822;6.860;2023-04-19T07:35:52;6.43;;;2.50;;
55172;SDS011;41061;52.822;6.860;2023-04-19T07:38:18;10.27;;;2.70;;
55172;SDS011;41061;52.822;6.860;2023-04-19T07:40:44;5.10;;;2.40;;
55172;SDS011;41061;52.822;6.860;2023-04-19T07:43:10;3.88;;;2.78;;
55172;SDS011;41061;52.822;6.860;2023-04-19T07:45:35;6.82;;;3.00;;
55172;SDS011;41061;52.822;6.860;2023-04-19T07:48:01;5.30;;;2.80;;
55172;SDS011;41061;52.822;6.860;2023-04-19T07:50:27;3.45;;;2.70;;
55172;SDS011;41061;52.822;6.860;2023-04-19T07:52:53;4.57;;;2.45;;
55172;SDS011;41061;52.822;6.860;2023-04-19T07:55:18;5.05;;;2.83;;
55172;SDS011;41061;52.822;6.860;2023-04-19T07:57:45;9.90;;;2.60;;
55172;SDS011;41061;52.822;6.860;2023-04-19T08:00:15;9.18;;;2.70;;
55172;SDS011;41061;52.822;6.860;2023-04-19T08:02:45;7.50;;;2.55;;
55172;SDS011;41061;52.822;6.860;2023-04-19T08:05:12;4.72;;;2.50;;
55172;SDS011;41061;52.822;6.860;2023-04-19T08:07:41;4.03;;;2.63;;
55172;SDS011;41061;52.822;6.860;2023-04-19T08:10:07;8.60;;;3.10;;
55172;SDS011;41061;52.822;6.860;2023-04-19T08:12:34;5.72;;;2.92;;
55172;SDS011;41061;52.822;6.860;2023-04-19T08:15:01;4.90;;;2.70;;
55172;SDS011;41061;52.822;6.860;2023-04-19T08:17:27;3.85;;;2.72;;
55172;SDS011;41061;52.822;6.860;2023-04-19T08:19:53;6.10;;;2.80;;
55172;SDS011;41061;52.822;6.860;2023-04-19T08:22:19;7.97;;;3.30;;
55172;SDS011;41061;52.822;6.860;2023-04-19T08:24:47;3.97;;;2.60;;
55172;SDS011;41061;52.822;6.860;2023-04-19T08:27:14;6.72;;;3.05;;
55172;SDS011;41061;52.822;6.860;2023-04-19T08:29:40;5.63;;;2.97;;
55172;SDS011;41061;52.822;6.860;2023-04-19T08:32:05;5.18;;;2.75;;
55172;SDS011;41061;52.822;6.860;2023-04-19T08:34:34;6.88;;;2.83;;
55172;SDS011;41061;52.822;6.860;2023-04-19T08:37:01;4.80;;;2.30;;
55172;SDS011;41061;52.822;6.860;2023-04-19T08:39:27;6.63;;;2.35;;
55172;SDS011;41061;52.822;6.860;2023-04-19T08:41:54;5.38;;;2.30;;
55172;SDS011;41061;52.822;6.860;2023-04-19T08:44:21;5.60;;;2.60;;
55172;SDS011;41061;52.822;6.860;2023-04-19T08:46:48;5.20;;;2.70;;
55172;SDS011;41061;52.822;6.860;2023-04-19T08:49:15;5.20;;;2.20;;
55172;SDS011;41061;52.822;6.860;2023-04-19T08:51:44;6.68;;;2.67;;
55172;SDS011;41061;52.822;6.860;2023-04-19T08:54:12;6.30;;;2.83;;
55172;SDS011;41061;52.822;6.860;2023-04-19T08:56:40;4.90;;;2.22;;
55172;SDS011;41061;52.822;6.860;2023-04-19T08:59:05;5.03;;;2.40;;
55172;SDS011;41061;52.822;6.860;2023-04-19T09:01:31;4.35;;;2.38;;
55172;SDS011;41061;52.822;6.860;2023-04-19T09:03:57;4.88;;;2.05;;
55172;SDS011;41061;52.822;6.860;2023-04-19T09:06:22;6.82;;;2.33;;
55172;SDS011;41061;52.822;6.860;2023-04-19T09:08:48;3.90;;;2.35;;
55172;SDS011;41061;52.822;6.860;2023-04-19T09:11:16;3.25;;;2.13;;
55172;SDS011;41061;52.822;6.860;2023-04-19T09:13:44;4.68;;;2.17;;
55172;SDS011;41061;52.822;6.860;2023-04-19T09:16:25;4.10;;;2.10;;
55172;SDS011;41061;52.822;6.860;2023-04-19T09:18:54;2.45;;;1.88;;
55172;SDS011;41061;52.822;6.860;2023-04-19T09:21:28;5.25;;;1.80;;
55172;SDS011;41061;52.822;6.860;2023-04-19T09:23:55;3.92;;;1.95;;
55172;SDS011;41061;52.822;6.860;2023-04-19T09:26:21;2.90;;;1.85;;
55172;SDS011;41061;52.822;6.860;2023-04-19T09:28:57;3.88;;;2.35;;
55172;SDS011;41061;52.822;6.860;2023-04-19T09:31:28;3.00;;;1.98;;
55172;SDS011;41061;52.822;6.860;2023-04-19T09:33:55;3.38;;;1.95;;
55172;SDS011;41061;52.822;6.860;2023-04-19T09:36:28;6.35;;;2.13;;
55172;SDS011;41061;52.822;6.860;2023-04-19T09:38:55;3.33;;;1.90;;
55172;SDS011;41061;52.822;6.860;2023-04-19T09:41:21;8.48;;;1.98;;
55172;SDS011;41061;52.822;6.860;2023-04-19T09:43:47;3.60;;;1.70;;
55172;SDS011;41061;52.822;6.860;2023-04-19T09:46:28;3.67;;;1.80;;
55172;SDS011;41061;52.822;6.860;2023-04-19T09:49:17;3.38;;;1.85;;
55172;SDS011;41061;52.822;6.860;2023-04-19T09:51:54;6.20;;;1.80;;
55172;SDS011;41061;52.822;6.860;2023-04-19T09:54:21;5.75;;;1.80;;
55172;SDS011;41061;52.822;6.860;2023-04-19T09:56:48;4.00;;;1.75;;
55172;SDS011;41061;52.822;6.860;2023-04-19T09:59:15;4.13;;;1.80;;
55172;SDS011;41061;52.822;6.860;2023-04-19T10:01:42;3.58;;;1.83;;
55172;SDS011;41061;52.822;6.860;2023-04-19T10:04:15;2.88;;;1.58;;
55172;SDS011;41061;52.822;6.860;2023-04-19T10:06:50;3.22;;;1.38;;
55172;SDS011;41061;52.822;6.860;2023-04-19T10:09:18;4.03;;;1.60;;
55172;SDS011;41061;52.822;6.860;2023-04-19T10:11:48;6.53;;;2.38;;
55172;SDS011;41061;52.822;6.860;2023-04-19T10:14:15;3.00;;;1.70;;
55172;SDS011;41061;52.822;6.860;2023-04-19T10:16:43;3.90;;;1.70;;
55172;SDS011;41061;52.822;6.860;2023-04-19T10:19:11;5.18;;;1.67;;
55172;SDS011;41061;52.822;6.860;2023-04-19T10:21:43;3.92;;;1.33;;
55172;SDS011;41061;52.822;6.860;2023-04-19T10:24:11;3.33;;;1.65;;
55172;SDS011;41061;52.822;6.860;2023-04-19T10:32:40;6.38;;;1.48;;
55172;SDS011;41061;52.822;6.860;2023-04-19T10:35:08;4.03;;;1.83;;
55172;SDS011;41061;52.822;6.860;2023-04-19T10:37:34;3.88;;;1.70;;
55172;SDS011;41061;52.822;6.860;2023-04-19T10:40:04;4.82;;;1.40;;
55172;SDS011;41061;52.822;6.860;2023-04-19T10:45:34;3.65;;;1.40;;
55172;SDS011;41061;52.822;6.860;2023-04-19T10:48:01;4.13;;;1.83;;
55172;SDS011;41061;52.822;6.860;2023-04-19T10:50:28;2.90;;;1.40;;
55172;SDS011;41061;52.822;6.860;2023-04-19T10:52:54;5.20;;;1.40;;
55172;SDS011;41061;52.822;6.860;2023-04-19T10:55:20;4.05;;;1.60;;
55172;SDS011;41061;52.822;6.860;2023-04-19T10:58:04;2.17;;;1.33;;
55172;SDS011;41061;52.822;6.860;2023-04-19T11:00:30;4.63;;;1.25;;
55172;SDS011;41061;52.822;6.860;2023-04-19T11:03:49;7.03;;;1.85;;
55172;SDS011;41061;52.822;6.860;2023-04-19T11:06:13;2.83;;;1.35;;
55172;SDS011;41061;52.822;6.860;2023-04-19T11:08:42;2.30;;;1.52;;
55172;SDS011;41061;52.822;6.860;2023-04-19T11:11:09;4.93;;;1.38;;
55172;SDS011;41061;52.822;6.860;2023-04-19T11:13:35;5.15;;;1.60;;
55172;SDS011;41061;52.822;6.860;2023-04-19T11:16:07;4.50;;;1.52;;
55172;SDS011;41061;52.822;6.860;2023-04-19T11:18:34;2.53;;;1.50;;
55172;SDS011;41061;52.822;6.860;2023-04-19T11:20:59;3.30;;;1.77;;
55172;SDS011;41061;52.822;6.860;2023-04-19T11:23:25;7.68;;;1.60;;
55172;SDS011;41061;52.822;6.860;2023-04-19T11:25:51;2.20;;;1.70;;
55172;SDS011;41061;52.822;6.860;2023-04-19T11:28:17;2.67;;;1.63;;
55172;SDS011;41061;52.822;6.860;2023-04-19T11:30:45;2.42;;;1.80;;
55172;SDS011;41061;52.822;6.860;2023-04-19T11:33:12;3.78;;;1.60;;
55172;SDS011;41061;52.822;6.860;2023-04-19T11:35:38;3.00;;;1.85;;
55172;SDS011;41061;52.822;6.860;2023-04-19T11:38:05;5.63;;;1.88;;
55172;SDS011;41061;52.822;6.860;2023-04-19T11:40:31;2.95;;;1.60;;
55172;SDS011;41061;52.822;6.860;2023-04-19T11:42:58;3.45;;;2.08;;
55172;SDS011;41061;52.822;6.860;2023-04-19T11:45:28;4.35;;;1.85;;
55172;SDS011;41061;52.822;6.860;2023-04-19T11:47:58;4.15;;;1.90;;
55172;SDS011;41061;52.822;6.860;2023-04-19T11:50:38;1.73;;;1.42;;
55172;SDS011;41061;52.822;6.860;2023-04-19T11:53:15;3.10;;;1.80;;
55172;SDS011;41061;52.822;6.860;2023-04-19T11:55:45;3.97;;;2.38;;
55172;SDS011;41061;52.822;6.860;2023-04-19T11:58:22;2.25;;;1.80;;
55172;SDS011;41061;52.822;6.860;2023-04-19T12:01:06;3.17;;;2.08;;
55172;SDS011;41061;52.822;6.860;2023-04-19T12:03:34;2.88;;;1.90;;
55172;SDS011;41061;52.822;6.860;2023-04-19T12:06:13;3.83;;;2.30;;
55172;SDS011;41061;52.822;6.860;2023-04-19T12:08:44;4.15;;;2.63;;
55172;SDS011;41061;52.822;6.860;2023-04-19T12:11:11;3.33;;;2.55;;
55172;SDS011;41061;52.822;6.860;2023-04-19T12:13:38;4.47;;;2.45;;
55172;SDS011;41061;52.822;6.860;2023-04-19T12:16:05;3.92;;;2.28;;
55172;SDS011;41061;52.822;6.860;2023-04-19T12:18:42;2.85;;;2.17;;
55172;SDS011;41061;52.822;6.860;2023-04-19T12:21:09;4.10;;;2.45;;
55172;SDS011;41061;52.822;6.860;2023-04-19T12:23:35;4.25;;;2.70;;
55172;SDS011;41061;52.822;6.860;2023-04-19T12:26:02;3.58;;;2.60;;
55172;SDS011;41061;52.822;6.860;2023-04-19T12:28:32;4.85;;;2.83;;
55172;SDS011;41061;52.822;6.860;2023-04-19T12:30:58;3.75;;;2.50;;
55172;SDS011;41061;52.822;6.860;2023-04-19T12:33:23;5.53;;;3.05;;
55172;SDS011;41061;52.822;6.860;2023-04-19T12:35:49;5.25;;;2.97;;
55172;SDS011;41061;52.822;6.860;2023-04-19T12:38:16;5.40;;;2.75;;
55172;SDS011;41061;52.822;6.860;2023-04-19T12:40:42;8.20;;;3.28;;
55172;SDS011;41061;52.822;6.860;2023-04-19T12:43:08;6.40;;;3.03;;
55172;SDS011;41061;52.822;6.860;2023-04-19T12:45:34;12.65;;;3.53;;
55172;SDS011;41061;52.822;6.860;2023-04-19T12:48:00;5.35;;;2.80;;
55172;SDS011;41061;52.822;6.860;2023-04-19T12:50:27;3.47;;;2.22;;
55172;SDS011;41061;52.822;6.860;2023-04-19T12:52:53;10.32;;;2.78;;
55172;SDS011;41061;52.822;6.860;2023-04-19T12:55:18;4.43;;;2.97;;
55172;SDS011;41061;52.822;6.860;2023-04-19T12:57:46;7.13;;;3.30;;
55172;SDS011;41061;52.822;6.860;2023-04-19T13:00:12;5.03;;;2.75;;
55172;SDS011;41061;52.822;6.860;2023-04-19T13:02:38;4.85;;;2.78;;
55172;SDS011;41061;52.822;6.860;2023-04-19T13:05:04;8.80;;;3.00;;
55172;SDS011;41061;52.822;6.860;2023-04-19T13:07:30;5.43;;;2.60;;
55172;SDS011;41061;52.822;6.860;2023-04-19T13:09:56;3.13;;;2.58;;
55172;SDS011;41061;52.822;6.860;2023-04-19T13:12:22;3.50;;;2.38;;
55172;SDS011;41061;52.822;6.860;2023-04-19T13:14:48;5.18;;;2.45;;
55172;SDS011;41061;52.822;6.860;2023-04-19T13:17:16;3.83;;;3.03;;
55172;SDS011;41061;52.822;6.860;2023-04-19T13:19:42;3.35;;;2.58;;
55172;SDS011;41061;52.822;6.860;2023-04-19T13:22:09;4.40;;;3.10;;
55172;SDS011;41061;52.822;6.860;2023-04-19T13:24:35;3.80;;;2.47;;
55172;SDS011;41061;52.822;6.860;2023-04-19T13:27:01;8.35;;;3.08;;
55172;SDS011;41061;52.822;6.860;2023-04-19T13:29:27;4.90;;;2.85;;
55172;SDS011;41061;52.822;6.860;2023-04-19T13:31:53;11.32;;;4.47;;
55172;SDS011;41061;52.822;6.860;2023-04-19T13:34:19;9.35;;;2.40;;
55172;SDS011;41061;52.822;6.860;2023-04-19T13:36:45;3.15;;;2.33;;
55172;SDS011;41061;52.822;6.860;2023-04-19T13:39:11;6.75;;;2.40;;
55172;SDS011;41061;52.822;6.860;2023-04-19T13:41:37;8.48;;;2.92;;
55172;SDS011;41061;52.822;6.860;2023-04-19T13:44:02;4.57;;;2.65;;
55172;SDS011;41061;52.822;6.860;2023-04-19T13:46:28;3.58;;;2.20;;
55172;SDS011;41061;52.822;6.860;2023-04-19T13:48:54;4.13;;;2.15;;
55172;SDS011;41061;52.822;6.860;2023-04-19T13:51:20;5.43;;;2.35;;
55172;SDS011;41061;52.822;6.860;2023-04-19T13:53:45;6.35;;;2.67;;
55172;SDS011;41061;52.822;6.860;2023-04-19T13:56:11;11.57;;;2.58;;
55172;SDS011;41061;52.822;6.860;2023-04-19T13:58:37;2.95;;;2.67;;
55172;SDS011;41061;52.822;6.860;2023-04-19T14:01:02;4.88;;;2.63;;
55172;SDS011;41061;52.822;6.860;2023-04-19T14:03:29;8.60;;;2.97;;
55172;SDS011;41061;52.822;6.860;2023-04-19T14:05:56;5.25;;;2.60;;
55172;SDS011;41061;52.822;6.860;2023-04-19T14:08:22;7.63;;;2.60;;
55172;SDS011;41061;52.822;6.860;2023-04-19T14:10:48;6.28;;;2.30;;
55172;SDS011;41061;52.822;6.860;2023-04-19T14:13:15;19.52;;;3.67;;
55172;SDS011;41061;52.822;6.860;2023-04-19T14:15:41;3.50;;;2.40;;
55172;SDS011;41061;52.822;6.860;2023-04-19T14:18:06;4.95;;;2.50;;
55172;SDS011;41061;52.822;6.860;2023-04-19T14:20:32;5.70;;;2.35;;
55172;SDS011;41061;52.822;6.860;2023-04-19T14:22:58;5.68;;;2.35;;
55172;SDS011;41061;52.822;6.860;2023-04-19T14:25:25;2.95;;;2.30;;
55172;SDS011;41061;52.822;6.860;2023-04-19T14:27:53;3.38;;;2.30;;
55172;SDS011;41061;52.822;6.860;2023-04-19T14:30:19;6.70;;;2.53;;
55172;SDS011;41061;52.822;6.860;2023-04-19T14:32:50;2.83;;;2.20;;
55172;SDS011;41061;52.822;6.860;2023-04-19T14:35:20;3.80;;;2.42;;
55172;SDS011;41061;52.822;6.860;2023-04-19T14:37:46;4.03;;;2.22;;
55172;SDS011;41061;52.822;6.860;2023-04-19T14:40:13;8.55;;;2.47;;
55172;SDS011;41061;52.822;6.860;2023-04-19T14:42:41;3.47;;;2.35;;
55172;SDS011;41061;52.822;6.860;2023-04-19T14:45:07;7.82;;;2.20;;
55172;SDS011;41061;52.822;6.860;2023-04-19T14:47:34;15.15;;;3.38;;
55172;SDS011;41061;52.822;6.860;2023-04-19T14:50:00;4.88;;;1.85;;